Flight Track Log - Related Links

Times and Time Zones

All times are in EDT time to prevent confusion due to time zone crossing. See the SWA1718 flight status page for this flight to view local times or setup timezone preferences in your user account.

Time Position Orientation Groundspeed Altitude Reporting Facility
EDT Latitude Longitude Course Direction KTS MPH feet Rate Location/Type
Fri 03:25:10 PM 32.8833 -96.9000 301° West 195 224 2,500  Level Dallas / Fort Worth TRACON
Fri 03:26:10 PM 32.9333 -96.9500 320° Northwest 218 251 5,700 3,450 Climbing Dallas / Fort Worth TRACON
Fri 03:27:10 PM 32.9667 -97.0000 308° West 247 284 9,400 2,700 Climbing Dallas / Fort Worth TRACON
Fri 03:28:10 PM 33.0167 -97.0667 312° West 281 323 11,100 2,105 Climbing Dallas / Fort Worth TRACON
Fri 03:29:04 PM 33.0667 -97.1500 306° West 342 394 13,400 2,970 Climbing Dallas / Fort Worth TRACON
Fri 03:29:51 PM 33.0692 -97.2350 272° West 349 402 16,100 2,860 Climbing Fort Worth Center
Fri 03:30:00 PM 33.1133 -97.3765 301° West  Level FlightAware Approximate
Fri 03:30:51 PM 33.0733 -97.3392 273° West 349 402 18,500  Level Fort Worth Center
Fri 03:31:52 PM 33.0797 -97.4681 273° West 349 402 20,900 2,000 Climbing Fort Worth Center
Fri 03:32:51 PM 33.0836 -97.5769 272° West 354 407 22,500 1,815 Climbing Fort Worth Center
Fri 03:33:51 PM 33.0919 -97.7183 274° West 378 435 24,500 1,884 Climbing Fort Worth Center
Fri 03:34:52 PM 33.1250 -97.8400 288° West 384 442 26,300 1,850 Climbing Fort Worth Center
Fri 03:35:51 PM 33.1642 -97.9644 291° West 394 453 28,200 1,916 Climbing Fort Worth Center
Fri 03:36:51 PM 33.2136 -98.0764 298° West 394 453 30,100 1,700 Climbing Fort Worth Center
Fri 03:37:51 PM 33.2756 -98.1811 305° West 388 447 31,600 1,700 Climbing Fort Worth Center
Fri 03:38:51 PM 33.3333 -98.2811 305° West 381 438 33,500 1,500 Climbing Fort Worth Center
Fri 03:39:51 PM 33.3850 -98.3711 305° West 375 432 34,600 1,240 Climbing Fort Worth Center
Fri 03:40:52 PM 33.4467 -98.4764 305° West 375 432 36,000 700 Climbing Fort Worth Center
Fri 03:41:51 PM 33.5083 -98.5794 306° West 370 426 36,000  Level Fort Worth Center
Fri 03:42:51 PM 33.5597 -98.6747 303° West 380 437 36,000  Level Fort Worth Center
Fri 03:43:52 PM 33.6211 -98.7756 306° West 385 443 36,000  Level Fort Worth Center
Fri 03:44:51 PM 33.6764 -98.8761 303° West 374 430 36,000  Level Fort Worth Center
Fri 03:45:51 PM 33.7397 -98.9872 304° West 369 425 36,000  Level Fort Worth Center
Fri 03:46:51 PM 33.7989 -99.0881 305° West 375 432 36,000  Level Fort Worth Center
Fri 03:47:51 PM 33.8539 -99.1842 305° West 363 418 36,000  Level Fort Worth Center
Fri 03:48:51 PM 33.9108 -99.2881 303° West 363 418 36,000  Level Fort Worth Center
Fri 03:49:52 PM 33.9678 -99.3919 303° West 368 423 36,000 -3,500 Level Fort Worth Center
Fri 03:50:51 PM 34.0244 -99.4958 303° West 373 429 29,000  Descending Fort Worth Center
Fri 03:51:51 PM 34.0833 -99.6003 304° West 380 437 36,000 3,500 Climbing Fort Worth Center
Fri 03:52:51 PM 34.1397 -99.7044 303° West 380 437 36,000  Level Fort Worth Center
Fri 03:53:51 PM 34.1964 -99.8039 305° West 375 432 36,000  Level Fort Worth Center
Fri 03:54:51 PM 34.2528 -99.9086 303° West 375 432 36,000  Level Fort Worth Center
Fri 03:55:52 PM 34.3069 -100.0081 303° West 375 432 36,000  Level Fort Worth Center
Fri 03:56:51 PM 34.3675 -100.1131 305° West 375 432 36,000 -885 Level Fort Worth Center
Fri 03:57:54 PM 34.4189 -100.2136 302° West 373 429 34,200 -2,208 Descending Albuquerque Center
Fri 03:58:56 PM 34.4772 -100.3206 304° West 379 436 31,400 -2,081 Descending Albuquerque Center
Fri 03:59:58 PM 34.5353 -100.4278 303° West 380 437 29,900 -2,081 Descending Albuquerque Center
Fri 04:01:00 PM 34.5972 -100.5403 304° West 394 453 27,100 -3,000 Descending Albuquerque Center
Fri 04:02:02 PM 34.6694 -100.6756 303° West 400 460 23,700 -2,855 Descending Albuquerque Center
Fri 04:03:04 PM 34.7264 -100.7817 303° West 383 441 21,200 -2,419 Descending Albuquerque Center
Fri 04:04:06 PM 34.7797 -100.8819 303° West 360 414 18,700 -2,274 Descending Albuquerque Center
Fri 04:05:08 PM 34.8300 -100.9772 303° West 344 396 16,500 -2,177 Descending Albuquerque Center
Fri 04:06:10 PM 34.8858 -101.0628 309° West 326 375 14,200 -2,129 Descending Albuquerque Center
Fri 04:07:12 PM 34.9594 -101.1519 315° West 315 362 12,100 -1,694 Descending Albuquerque Center
Fri 04:08:14 PM 35.0000 -101.2283 303° West 291 335 10,700 -1,065 Descending Albuquerque Center
Fri 04:09:16 PM 35.0094 -101.3186 277° West 276 318 9,900 -677 Descending Albuquerque Center
Fri 04:10:18 PM 35.0194 -101.3956 279° West 254 292 9,300 -1,161 Descending Albuquerque Center
Fri 04:11:20 PM 35.0581 -101.4600 306° West 242 278 7,500 -1,403 Descending Albuquerque Center
Fri 04:12:22 PM 35.1003 -101.5219 310° West 239 275 6,400 -1,113 Descending Albuquerque Center
Fri 04:13:24 PM 35.1383 -101.5803 309° West 230 265 5,200 -823 Descending Albuquerque Center
Fri 04:14:26 PM 35.1772 -101.6386 309° West 190 219 4,700 -629 Descending Albuquerque Center
Fri 04:15:28 PM 35.2072 -101.6719 318° Northwest 159 183 3,900 -774 Descending Albuquerque Center
Fri 04:17:00 PM 35.2167 -101.7000 219° Southwest  Level FlightAware Approximate

Login

Don't have an account? Register now (free) for customized features, flight alerts, and more!